Roanoke Regional Woodrum Field Roanoke US
ICAO: KROA
IATA: ROA
Category: Large
Scheduled Services: Yes

Elevation: 1175 ft
TransAlt. 18000 ft.

Airport Communications:
APP/DEP:118.15
ATIS:134.95
CLNC DEL:119.7
GND:121.9
LEESBURG RDO:122.2
TWR:118.3
UNICOM:122.95

KROA Zoom In..

Runways:

(A) RW 06 length 6800 ft width 150 ft
---- / hdg 57

(B) RW 16 length 5810 ft width 150 ft
---- / hdg 156

(C) RW 24 length 6800 ft width 150 ft
---- / hdg 237

(D) RW 34 length 5810 ft width 150 ft
ILS 109.70 / hdg 336

Location; KROA
Day. 09 / Time. 22.54 Zulu
* Altimeter: 29.94
* Temperature: 31° c. 87.8°f.
* Wind from: 100° Speed 07 kn.
Dewpoint: 19° c.
Visibility: 10 Statute Miles.
Clouds: Few 5000 ft.
Clouds: Scattered 18000 ft.

KROA 092254Z 10007KT 10SM FEW050 SCT180 31/19 A2994 RMK AO2 SLP125 T03110189

Going to: --> -->


Wind From 100°
Speed 07 kn.

 
 
jpsmedia worldairports.se 2020   terms of use